sensor_id;sensor_type;location;lat;lon;timestamp;temperature;humidity
30174;DHT22;16985;50.814;8.530;2022-09-12T00:01:05;12.50;99.90
30174;DHT22;16985;50.814;8.530;2022-09-12T00:03:53;12.50;99.90
30174;DHT22;16985;50.814;8.530;2022-09-12T00:06:24;12.50;99.90
30174;DHT22;16985;50.814;8.530;2022-09-12T00:09:01;12.50;99.90
30174;DHT22;16985;50.814;8.530;2022-09-12T00:11:38;12.40;99.90
30174;DHT22;16985;50.814;8.530;2022-09-12T00:14:08;12.40;99.90
30174;DHT22;16985;50.814;8.530;2022-09-12T00:16:37;12.40;99.90
30174;DHT22;16985;50.814;8.530;2022-09-12T00:19:04;12.40;99.90
30174;DHT22;16985;50.814;8.530;2022-09-12T00:21:35;12.40;99.90
30174;DHT22;16985;50.814;8.530;2022-09-12T00:24:03;12.30;99.90
30174;DHT22;16985;50.814;8.530;2022-09-12T00:26:29;12.30;99.90
30174;DHT22;16985;50.814;8.530;2022-09-12T00:28:55;12.40;99.90
30174;DHT22;16985;50.814;8.530;2022-09-12T00:31:23;12.40;99.90
30174;DHT22;16985;50.814;8.530;2022-09-12T00:33:50;12.40;99.90
30174;DHT22;16985;50.814;8.530;2022-09-12T00:36:22;12.30;99.90
30174;DHT22;16985;50.814;8.530;2022-09-12T00:38:49;12.30;99.90
30174;DHT22;16985;50.814;8.530;2022-09-12T00:41:18;12.30;99.90
30174;DHT22;16985;50.814;8.530;2022-09-12T00:43:47;12.30;99.90
30174;DHT22;16985;50.814;8.530;2022-09-12T00:49:26;12.20;99.90
30174;DHT22;16985;50.814;8.530;2022-09-12T00:52:01;12.20;99.90
30174;DHT22;16985;50.814;8.530;2022-09-12T00:54:33;12.20;99.90
30174;DHT22;16985;50.814;8.530;2022-09-12T00:57:05;12.10;99.90
30174;DHT22;16985;50.814;8.530;2022-09-12T00:59:58;12.10;99.90
30174;DHT22;16985;50.814;8.530;2022-09-12T01:02:59;12.00;99.90
30174;DHT22;16985;50.814;8.530;2022-09-12T01:05:29;12.00;99.90
30174;DHT22;16985;50.814;8.530;2022-09-12T01:07:56;12.00;99.90
30174;DHT22;16985;50.814;8.530;2022-09-12T01:10:23;11.90;99.90
30174;DHT22;16985;50.814;8.530;2022-09-12T01:12:52;11.90;99.90
30174;DHT22;16985;50.814;8.530;2022-09-12T01:15:18;11.90;99.90
30174;DHT22;16985;50.814;8.530;2022-09-12T01:18:43;11.90;99.90
30174;DHT22;16985;50.814;8.530;2022-09-12T01:29:56;11.80;99.90
30174;DHT22;16985;50.814;8.530;2022-09-12T01:32:53;11.80;99.90
30174;DHT22;16985;50.814;8.530;2022-09-12T01:53:03;11.80;99.90
30174;DHT22;16985;50.814;8.530;2022-09-12T01:55:41;11.80;99.90
30174;DHT22;16985;50.814;8.530;2022-09-12T01:58:15;11.80;99.90
30174;DHT22;16985;50.814;8.530;2022-09-12T02:01:06;11.80;99.90
30174;DHT22;16985;50.814;8.530;2022-09-12T02:04:02;11.50;99.90
30174;DHT22;16985;50.814;8.530;2022-09-12T02:06:42;11.80;99.90
30174;DHT22;16985;50.814;8.530;2022-09-12T02:09:36;11.80;99.90
30174;DHT22;16985;50.814;8.530;2022-09-12T02:12:08;11.80;99.90
30174;DHT22;16985;50.814;8.530;2022-09-12T02:14:42;11.70;99.90
30174;DHT22;16985;50.814;8.530;2022-09-12T02:17:13;11.70;99.90
30174;DHT22;16985;50.814;8.530;2022-09-12T02:19:57;11.70;99.90
30174;DHT22;16985;50.814;8.530;2022-09-12T02:22:27;11.70;99.90
30174;DHT22;16985;50.814;8.530;2022-09-12T02:24:58;11.70;99.90
30174;DHT22;16985;50.814;8.530;2022-09-12T02:30:08;11.70;99.90
30174;DHT22;16985;50.814;8.530;2022-09-12T02:32:55;11.70;99.90
30174;DHT22;16985;50.814;8.530;2022-09-12T02:35:49;11.70;99.90
30174;DHT22;16985;50.814;8.530;2022-09-12T02:38:39;11.70;99.90
30174;DHT22;16985;50.814;8.530;2022-09-12T02:41:09;11.70;99.90
30174;DHT22;16985;50.814;8.530;2022-09-12T02:43:35;11.70;99.90
30174;DHT22;16985;50.814;8.530;2022-09-12T02:46:04;11.70;99.90
30174;DHT22;16985;50.814;8.530;2022-09-12T02:48:34;11.70;99.90
30174;DHT22;16985;50.814;8.530;2022-09-12T02:51:04;11.60;99.90
30174;DHT22;16985;50.814;8.530;2022-09-12T02:53:30;11.60;99.90
30174;DHT22;16985;50.814;8.530;2022-09-12T02:55:56;11.70;99.90
30174;DHT22;16985;50.814;8.530;2022-09-12T02:58:26;11.60;99.90
30174;DHT22;16985;50.814;8.530;2022-09-12T03:01:26;11.60;99.90
30174;DHT22;16985;50.814;8.530;2022-09-12T03:07:15;11.60;99.90
30174;DHT22;16985;50.814;8.530;2022-09-12T03:10:09;11.60;99.90
30174;DHT22;16985;50.814;8.530;2022-09-12T03:15:15;11.60;99.90
30174;DHT22;16985;50.814;8.530;2022-09-12T03:26:17;11.60;99.90
30174;DHT22;16985;50.814;8.530;2022-09-12T03:28:46;11.60;99.90
30174;DHT22;16985;50.814;8.530;2022-09-12T03:31:17;11.60;99.90
30174;DHT22;16985;50.814;8.530;2022-09-12T03:33:44;11.60;99.90
30174;DHT22;16985;50.814;8.530;2022-09-12T03:36:20;11.60;99.90
30174;DHT22;16985;50.814;8.530;2022-09-12T03:38:47;11.50;99.90
30174;DHT22;16985;50.814;8.530;2022-09-12T03:41:13;11.60;99.90
30174;DHT22;16985;50.814;8.530;2022-09-12T03:43:39;11.50;99.90
30174;DHT22;16985;50.814;8.530;2022-09-12T03:46:05;11.50;99.90
30174;DHT22;16985;50.814;8.530;2022-09-12T03:48:31;11.50;99.90
30174;DHT22;16985;50.814;8.530;2022-09-12T03:51:01;11.50;99.90
30174;DHT22;16985;50.814;8.530;2022-09-12T03:53:32;11.50;99.90
30174;DHT22;16985;50.814;8.530;2022-09-12T03:55:58;11.50;99.90
30174;DHT22;16985;50.814;8.530;2022-09-12T03:58:24;11.50;99.90
30174;DHT22;16985;50.814;8.530;2022-09-12T04:00:55;11.40;99.90
30174;DHT22;16985;50.814;8.530;2022-09-12T04:03:21;11.50;99.90
30174;DHT22;16985;50.814;8.530;2022-09-12T04:05:47;11.40;99.90
30174;DHT22;16985;50.814;8.530;2022-09-12T04:08:13;11.40;99.90
30174;DHT22;16985;50.814;8.530;2022-09-12T04:10:39;11.40;99.90
30174;DHT22;16985;50.814;8.530;2022-09-12T04:13:05;11.40;99.90
30174;DHT22;16985;50.814;8.530;2022-09-12T04:15:31;11.40;99.90
30174;DHT22;16985;50.814;8.530;2022-09-12T04:17:57;11.40;99.90
30174;DHT22;16985;50.814;8.530;2022-09-12T04:20:22;11.40;99.90
30174;DHT22;16985;50.814;8.530;2022-09-12T04:22:49;11.40;99.90
30174;DHT22;16985;50.814;8.530;2022-09-12T04:25:14;11.40;99.90
30174;DHT22;16985;50.814;8.530;2022-09-12T04:27:41;11.40;99.90
30174;DHT22;16985;50.814;8.530;2022-09-12T04:30:08;11.40;99.90
30174;DHT22;16985;50.814;8.530;2022-09-12T04:32:34;11.40;99.90
30174;DHT22;16985;50.814;8.530;2022-09-12T04:34:59;11.30;99.90
30174;DHT22;16985;50.814;8.530;2022-09-12T04:37:26;11.30;99.90
30174;DHT22;16985;50.814;8.530;2022-09-12T04:39:52;11.30;99.90
30174;DHT22;16985;50.814;8.530;2022-09-12T04:42:22;11.30;99.90
30174;DHT22;16985;50.814;8.530;2022-09-12T04:44:48;11.30;99.90
30174;DHT22;16985;50.814;8.530;2022-09-12T04:47:14;11.30;99.90
30174;DHT22;16985;50.814;8.530;2022-09-12T04:49:41;11.30;99.90
30174;DHT22;16985;50.814;8.530;2022-09-12T04:52:07;11.20;99.90
30174;DHT22;16985;50.814;8.530;2022-09-12T04:54:32;11.20;99.90
30174;DHT22;16985;50.814;8.530;2022-09-12T04:56:58;11.20;99.90
30174;DHT22;16985;50.814;8.530;2022-09-12T04:59:24;11.20;99.90
30174;DHT22;16985;50.814;8.530;2022-09-12T05:01:50;11.20;99.90
30174;DHT22;16985;50.814;8.530;2022-09-12T05:04:16;11.20;99.90
30174;DHT22;16985;50.814;8.530;2022-09-12T05:06:43;11.20;99.90
30174;DHT22;16985;50.814;8.530;2022-09-12T05:09:10;11.10;99.90
30174;DHT22;16985;50.814;8.530;2022-09-12T05:11:40;11.20;99.90
30174;DHT22;16985;50.814;8.530;2022-09-12T05:14:08;11.20;99.90
30174;DHT22;16985;50.814;8.530;2022-09-12T05:16:35;11.20;99.90
30174;DHT22;16985;50.814;8.530;2022-09-12T05:19:00;11.10;99.90
30174;DHT22;16985;50.814;8.530;2022-09-12T05:21:26;11.10;99.90
30174;DHT22;16985;50.814;8.530;2022-09-12T05:23:54;11.10;99.90
30174;DHT22;16985;50.814;8.530;2022-09-12T05:26:21;11.10;99.90
30174;DHT22;16985;50.814;8.530;2022-09-12T05:28:49;11.10;99.90
30174;DHT22;16985;50.814;8.530;2022-09-12T05:31:22;11.10;99.90
30174;DHT22;16985;50.814;8.530;2022-09-12T05:33:52;11.10;99.90
30174;DHT22;16985;50.814;8.530;2022-09-12T05:36:22;11.10;99.90
30174;DHT22;16985;50.814;8.530;2022-09-12T05:38:50;11.20;99.90
30174;DHT22;16985;50.814;8.530;2022-09-12T05:41:18;11.10;99.90
30174;DHT22;16985;50.814;8.530;2022-09-12T05:43:49;11.10;99.90
30174;DHT22;16985;50.814;8.530;2022-09-12T05:46:20;11.10;99.90
30174;DHT22;16985;50.814;8.530;2022-09-12T05:48:48;11.10;99.90
30174;DHT22;16985;50.814;8.530;2022-09-12T05:51:23;11.10;99.90
30174;DHT22;16985;50.814;8.530;2022-09-12T05:53:55;11.10;99.90
30174;DHT22;16985;50.814;8.530;2022-09-12T05:56:24;11.10;99.90
30174;DHT22;16985;50.814;8.530;2022-09-12T05:58:54;11.10;99.90
30174;DHT22;16985;50.814;8.530;2022-09-12T06:01:24;11.10;99.90
30174;DHT22;16985;50.814;8.530;2022-09-12T06:03:55;11.10;99.90
30174;DHT22;16985;50.814;8.530;2022-09-12T06:06:24;11.10;99.90
30174;DHT22;16985;50.814;8.530;2022-09-12T06:08:52;11.10;99.90
30174;DHT22;16985;50.814;8.530;2022-09-12T06:11:25;11.10;99.90
30174;DHT22;16985;50.814;8.530;2022-09-12T06:13:52;11.10;99.90
30174;DHT22;16985;50.814;8.530;2022-09-12T06:16:31;11.10;99.90
30174;DHT22;16985;50.814;8.530;2022-09-12T06:19:00;11.20;99.90
30174;DHT22;16985;50.814;8.530;2022-09-12T06:21:28;11.20;99.90
30174;DHT22;16985;50.814;8.530;2022-09-12T06:23:56;11.20;99.90
30174;DHT22;16985;50.814;8.530;2022-09-12T06:26:26;11.20;99.90
30174;DHT22;16985;50.814;8.530;2022-09-12T06:28:55;11.30;99.90
30174;DHT22;16985;50.814;8.530;2022-09-12T06:31:25;11.30;99.90
30174;DHT22;16985;50.814;8.530;2022-09-12T06:33:56;11.40;99.90
30174;DHT22;16985;50.814;8.530;2022-09-12T06:36:27;11.40;99.90
30174;DHT22;16985;50.814;8.530;2022-09-12T06:39:02;11.40;99.90
30174;DHT22;16985;50.814;8.530;2022-09-12T06:41:30;11.40;99.90
30174;DHT22;16985;50.814;8.530;2022-09-12T06:43:57;11.50;99.90
30174;DHT22;16985;50.814;8.530;2022-09-12T06:46:24;11.50;99.90
30174;DHT22;16985;50.814;8.530;2022-09-12T06:48:50;11.50;99.90
30174;DHT22;16985;50.814;8.530;2022-09-12T06:51:18;11.50;99.90
30174;DHT22;16985;50.814;8.530;2022-09-12T06:53:48;11.60;99.90
30174;DHT22;16985;50.814;8.530;2022-09-12T06:56:21;11.60;99.90
30174;DHT22;16985;50.814;8.530;2022-09-12T06:58:49;11.60;99.90
30174;DHT22;16985;50.814;8.530;2022-09-12T07:01:21;11.70;99.90
30174;DHT22;16985;50.814;8.530;2022-09-12T07:03:50;11.70;99.90
30174;DHT22;16985;50.814;8.530;2022-09-12T07:06:19;11.70;99.90
30174;DHT22;16985;50.814;8.530;2022-09-12T07:08:46;11.70;99.90
30174;DHT22;16985;50.814;8.530;2022-09-12T07:11:17;11.70;99.90
30174;DHT22;16985;50.814;8.530;2022-09-12T07:13:47;11.80;99.90
30174;DHT22;16985;50.814;8.530;2022-09-12T07:16:17;11.80;99.90
30174;DHT22;16985;50.814;8.530;2022-09-12T07:18:44;11.90;99.90
30174;DHT22;16985;50.814;8.530;2022-09-12T07:21:14;11.90;99.90
30174;DHT22;16985;50.814;8.530;2022-09-12T07:23:40;11.90;99.90
30174;DHT22;16985;50.814;8.530;2022-09-12T07:26:09;12.00;99.90
30174;DHT22;16985;50.814;8.530;2022-09-12T07:28:38;12.00;99.90
30174;DHT22;16985;50.814;8.530;2022-09-12T07:31:09;12.00;99.90
30174;DHT22;16985;50.814;8.530;2022-09-12T07:33:40;12.10;99.90
30174;DHT22;16985;50.814;8.530;2022-09-12T07:36:09;12.10;99.90
30174;DHT22;16985;50.814;8.530;2022-09-12T07:38:37;13.10;99.90
30174;DHT22;16985;50.814;8.530;2022-09-12T07:41:14;12.10;99.90
30174;DHT22;16985;50.814;8.530;2022-09-12T07:43:42;12.20;99.90
30174;DHT22;16985;50.814;8.530;2022-09-12T07:46:08;12.20;99.90
30174;DHT22;16985;50.814;8.530;2022-09-12T07:48:34;12.30;99.90
30174;DHT22;16985;50.814;8.530;2022-09-12T07:51:03;12.30;99.90
30174;DHT22;16985;50.814;8.530;2022-09-12T07:53:35;12.30;99.90
30174;DHT22;16985;50.814;8.530;2022-09-12T07:56:02;12.40;99.90
30174;DHT22;16985;50.814;8.530;2022-09-12T07:58:31;12.40;99.90
30174;DHT22;16985;50.814;8.530;2022-09-12T08:01:12;12.50;99.90
30174;DHT22;16985;50.814;8.530;2022-09-12T08:03:45;12.60;99.90
30174;DHT22;16985;50.814;8.530;2022-09-12T08:06:14;12.70;99.90
30174;DHT22;16985;50.814;8.530;2022-09-12T08:08:45;12.70;99.90
30174;DHT22;16985;50.814;8.530;2022-09-12T08:11:13;12.80;99.90
30174;DHT22;16985;50.814;8.530;2022-09-12T08:13:41;12.90;99.90
30174;DHT22;16985;50.814;8.530;2022-09-12T08:16:11;13.10;99.90
30174;DHT22;16985;50.814;8.530;2022-09-12T08:18:38;13.20;99.90
30174;DHT22;16985;50.814;8.530;2022-09-12T08:21:13;13.20;99.90
30174;DHT22;16985;50.814;8.530;2022-09-12T08:23:54;13.40;99.90
30174;DHT22;16985;50.814;8.530;2022-09-12T08:26:23;13.50;99.90
30174;DHT22;16985;50.814;8.530;2022-09-12T08:28:49;13.50;99.90
30174;DHT22;16985;50.814;8.530;2022-09-12T08:31:17;13.70;99.90
30174;DHT22;16985;50.814;8.530;2022-09-12T08:33:44;13.80;99.90
30174;DHT22;16985;50.814;8.530;2022-09-12T08:38:42;14.00;99.90
30174;DHT22;16985;50.814;8.530;2022-09-12T08:41:45;14.20;99.90
30174;DHT22;16985;50.814;8.530;2022-09-12T08:44:22;14.30;99.90
30174;DHT22;16985;50.814;8.530;2022-09-12T08:47:26;14.50;99.90
30174;DHT22;16985;50.814;8.530;2022-09-12T08:50:01;14.60;99.90
30174;DHT22;16985;50.814;8.530;2022-09-12T09:01:07;15.20;99.90
30174;DHT22;16985;50.814;8.530;2022-09-12T09:03:55;15.40;99.90
30174;DHT22;16985;50.814;8.530;2022-09-12T09:12:31;15.70;99.90
30174;DHT22;16985;50.814;8.530;2022-09-12T09:15:32;15.90;99.90
30174;DHT22;16985;50.814;8.530;2022-09-12T09:18:21;16.00;99.90
30174;DHT22;16985;50.814;8.530;2022-09-12T09:20:58;16.20;99.90
30174;DHT22;16985;50.814;8.530;2022-09-12T09:23:43;16.30;99.90
30174;DHT22;16985;50.814;8.530;2022-09-12T09:26:16;16.40;99.90
30174;DHT22;16985;50.814;8.530;2022-09-12T09:29:05;16.40;99.90
30174;DHT22;16985;50.814;8.530;2022-09-12T09:31:37;16.60;99.90
30174;DHT22;16985;50.814;8.530;2022-09-12T09:34:19;16.70;99.90
30174;DHT22;16985;50.814;8.530;2022-09-12T09:36:51;16.80;99.90
30174;DHT22;16985;50.814;8.530;2022-09-12T09:45:14;17.10;99.90
30174;DHT22;16985;50.814;8.530;2022-09-12T09:47:50;17.20;99.90
30174;DHT22;16985;50.814;8.530;2022-09-12T09:50:18;17.20;99.90
30174;DHT22;16985;50.814;8.530;2022-09-12T09:52:44;17.50;99.90
30174;DHT22;16985;50.814;8.530;2022-09-12T09:55:18;17.40;99.90
30174;DHT22;16985;50.814;8.530;2022-09-12T09:57:46;17.50;99.90
30174;DHT22;16985;50.814;8.530;2022-09-12T10:00:32;17.60;99.90
30174;DHT22;16985;50.814;8.530;2022-09-12T10:03:04;17.60;99.90
30174;DHT22;16985;50.814;8.530;2022-09-12T10:05:46;17.70;99.90
30174;DHT22;16985;50.814;8.530;2022-09-12T10:10:58;18.00;99.90
30174;DHT22;16985;50.814;8.530;2022-09-12T10:13:41;18.10;99.90
30174;DHT22;16985;50.814;8.530;2022-09-12T10:16:27;18.30;99.90
30174;DHT22;16985;50.814;8.530;2022-09-12T10:18:57;18.40;99.90
30174;DHT22;16985;50.814;8.530;2022-09-12T10:21:28;18.40;99.90
30174;DHT22;16985;50.814;8.530;2022-09-12T10:26:49;18.70;99.90
30174;DHT22;16985;50.814;8.530;2022-09-12T10:29:21;18.80;99.90
30174;DHT22;16985;50.814;8.530;2022-09-12T10:32:06;18.90;99.90
30174;DHT22;16985;50.814;8.530;2022-09-12T10:34:43;18.90;99.90
30174;DHT22;16985;50.814;8.530;2022-09-12T10:37:17;19.00;99.90
30174;DHT22;16985;50.814;8.530;2022-09-12T10:39:53;19.00;99.90
30174;DHT22;16985;50.814;8.530;2022-09-12T10:42:40;19.10;99.90
30174;DHT22;16985;50.814;8.530;2022-09-12T10:45:33;19.10;99.90
30174;DHT22;16985;50.814;8.530;2022-09-12T10:48:03;19.20;99.50
30174;DHT22;16985;50.814;8.530;2022-09-12T10:50:47;19.30;98.90
30174;DHT22;16985;50.814;8.530;2022-09-12T10:53:23;19.50;98.70
30174;DHT22;16985;50.814;8.530;2022-09-12T11:02:01;19.80;97.30
30174;DHT22;16985;50.814;8.530;2022-09-12T11:13:14;20.40;96.10
30174;DHT22;16985;50.814;8.530;2022-09-12T11:15:54;20.60;95.70
30174;DHT22;16985;50.814;8.530;2022-09-12T11:24:34;21.60;94.80
30174;DHT22;16985;50.814;8.530;2022-09-12T11:30:13;21.60;92.20
30174;DHT22;16985;50.814;8.530;2022-09-12T11:35:50;22.00;91.40
30174;DHT22;16985;50.814;8.530;2022-09-12T11:41:40;22.30;90.40
30174;DHT22;16985;50.814;8.530;2022-09-12T11:44:35;22.40;90.00
30174;DHT22;16985;50.814;8.530;2022-09-12T11:47:06;22.50;89.00
30174;DHT22;16985;50.814;8.530;2022-09-12T11:49:46;22.50;88.80
30174;DHT22;16985;50.814;8.530;2022-09-12T11:52:19;22.60;87.60
30174;DHT22;16985;50.814;8.530;2022-09-12T12:00:20;23.00;86.00
30174;DHT22;16985;50.814;8.530;2022-09-12T12:08:44;23.20;83.20
30174;DHT22;16985;50.814;8.530;2022-09-12T12:14:25;23.40;78.60
30174;DHT22;16985;50.814;8.530;2022-09-12T12:17:02;23.40;77.60
30174;DHT22;16985;50.814;8.530;2022-09-12T12:19:33;23.40;75.70
30174;DHT22;16985;50.814;8.530;2022-09-12T12:22:18;23.50;74.90
30174;DHT22;16985;50.814;8.530;2022-09-12T12:25:06;23.60;74.30
30174;DHT22;16985;50.814;8.530;2022-09-12T12:33:50;23.80;71.90
30174;DHT22;16985;50.814;8.530;2022-09-12T12:36:09;23.90;70.70
30174;DHT22;16985;50.814;8.530;2022-09-12T12:38:36;24.00;70.10
30174;DHT22;16985;50.814;8.530;2022-09-12T12:43:45;24.10;71.10
30174;DHT22;16985;50.814;8.530;2022-09-12T12:46:23;24.50;70.00
30174;DHT22;16985;50.814;8.530;2022-09-12T12:49:08;24.30;68.80
30174;DHT22;16985;50.814;8.530;2022-09-12T12:57:26;24.60;68.40
30174;DHT22;16985;50.814;8.530;2022-09-12T13:00:07;24.60;67.80
30174;DHT22;16985;50.814;8.530;2022-09-12T13:02:56;24.70;68.20
30174;DHT22;16985;50.814;8.530;2022-09-12T13:05:26;24.70;67.30
30174;DHT22;16985;50.814;8.530;2022-09-12T13:13:33;24.80;64.00
30174;DHT22;16985;50.814;8.530;2022-09-12T13:16:33;24.90;64.20
30174;DHT22;16985;50.814;8.530;2022-09-12T13:19:24;24.80;62.70
30174;DHT22;16985;50.814;8.530;2022-09-12T13:24:22;24.80;62.50
30174;DHT22;16985;50.814;8.530;2022-09-12T13:26:48;24.70;62.30
30174;DHT22;16985;50.814;8.530;2022-09-12T13:29:23;24.60;62.40
30174;DHT22;16985;50.814;8.530;2022-09-12T13:31:58;24.40;64.30
30174;DHT22;16985;50.814;8.530;2022-09-12T13:37:31;24.40;64.40
30174;DHT22;16985;50.814;8.530;2022-09-12T13:40:40;24.40;64.70
30174;DHT22;16985;50.814;8.530;2022-09-12T13:43:30;24.40;65.30
30174;DHT22;16985;50.814;8.530;2022-09-12T13:46:01;24.50;64.70
30174;DHT22;16985;50.814;8.530;2022-09-12T13:48:27;24.40;62.60
30174;DHT22;16985;50.814;8.530;2022-09-12T13:50:56;24.50;62.30
30174;DHT22;16985;50.814;8.530;2022-09-12T13:53:31;24.60;61.60
30174;DHT22;16985;50.814;8.530;2022-09-12T13:56:04;24.60;61.80
30174;DHT22;16985;50.814;8.530;2022-09-12T13:58:32;24.70;62.10
30174;DHT22;16985;50.814;8.530;2022-09-12T14:01:14;24.80;61.20
30174;DHT22;16985;50.814;8.530;2022-09-12T14:03:46;24.90;61.70
30174;DHT22;16985;50.814;8.530;2022-09-12T14:06:50;24.90;60.70
30174;DHT22;16985;50.814;8.530;2022-09-12T14:09:25;24.90;60.70
30174;DHT22;16985;50.814;8.530;2022-09-12T14:11:54;24.90;60.90
30174;DHT22;16985;50.814;8.530;2022-09-12T14:14:31;25.00;60.20
30174;DHT22;16985;50.814;8.530;2022-09-12T14:16:58;25.00;60.10
30174;DHT22;16985;50.814;8.530;2022-09-12T14:19:25;24.90;60.10
30174;DHT22;16985;50.814;8.530;2022-09-12T14:21:52;25.00;60.10
30174;DHT22;16985;50.814;8.530;2022-09-12T14:24:19;25.00;60.20
30174;DHT22;16985;50.814;8.530;2022-09-12T14:26:49;25.00;60.10
30174;DHT22;16985;50.814;8.530;2022-09-12T14:29:17;24.90;60.30
30174;DHT22;16985;50.814;8.530;2022-09-12T14:31:44;25.00;61.00
30174;DHT22;16985;50.814;8.530;2022-09-12T14:34:14;25.00;61.00
30174;DHT22;16985;50.814;8.530;2022-09-12T14:36:50;24.90;60.80
30174;DHT22;16985;50.814;8.530;2022-09-12T14:39:37;25.00;60.00
30174;DHT22;16985;50.814;8.530;2022-09-12T14:42:10;25.00;59.70
30174;DHT22;16985;50.814;8.530;2022-09-12T14:44:59;25.00;59.30
30174;DHT22;16985;50.814;8.530;2022-09-12T14:47:32;25.00;60.30
30174;DHT22;16985;50.814;8.530;2022-09-12T14:50:01;25.10;60.60
30174;DHT22;16985;50.814;8.530;2022-09-12T14:52:29;25.10;61.20
30174;DHT22;16985;50.814;8.530;2022-09-12T14:55:19;25.10;60.80
30174;DHT22;16985;50.814;8.530;2022-09-12T15:03:35;25.00;61.70
30174;DHT22;16985;50.814;8.530;2022-09-12T15:06:04;25.00;61.80
30174;DHT22;16985;50.814;8.530;2022-09-12T15:08:32;24.90;60.30
30174;DHT22;16985;50.814;8.530;2022-09-12T15:10:58;24.80;59.90
30174;DHT22;16985;50.814;8.530;2022-09-12T15:13:26;24.70;60.20
30174;DHT22;16985;50.814;8.530;2022-09-12T15:15:55;24.60;60.80
30174;DHT22;16985;50.814;8.530;2022-09-12T15:18:24;24.60;61.30
30174;DHT22;16985;50.814;8.530;2022-09-12T15:21:00;24.40;61.90
30174;DHT22;16985;50.814;8.530;2022-09-12T15:23:51;24.40;62.50
30174;DHT22;16985;50.814;8.530;2022-09-12T15:26:22;24.30;62.50
30174;DHT22;16985;50.814;8.530;2022-09-12T15:28:52;24.30;63.10
30174;DHT22;16985;50.814;8.530;2022-09-12T15:31:29;24.30;62.40
30174;DHT22;16985;50.814;8.530;2022-09-12T15:33:57;24.30;62.80
30174;DHT22;16985;50.814;8.530;2022-09-12T15:36:24;24.20;63.20
30174;DHT22;16985;50.814;8.530;2022-09-12T15:38:51;24.20;63.30
30174;DHT22;16985;50.814;8.530;2022-09-12T15:41:20;24.20;63.80
30174;DHT22;16985;50.814;8.530;2022-09-12T15:43:51;24.20;63.70
30174;DHT22;16985;50.814;8.530;2022-09-12T15:46:17;24.10;63.00
30174;DHT22;16985;50.814;8.530;2022-09-12T15:48:44;24.00;62.60
30174;DHT22;16985;50.814;8.530;2022-09-12T15:51:12;24.00;63.00
30174;DHT22;16985;50.814;8.530;2022-09-12T15:53:39;23.90;63.90
30174;DHT22;16985;50.814;8.530;2022-09-12T15:56:05;23.70;64.10
30174;DHT22;16985;50.814;8.530;2022-09-12T15:58:31;23.80;64.80
30174;DHT22;16985;50.814;8.530;2022-09-12T16:00:57;23.70;65.30
30174;DHT22;16985;50.814;8.530;2022-09-12T16:03:27;23.60;65.00
30174;DHT22;16985;50.814;8.530;2022-09-12T16:06:01;23.50;65.60
30174;DHT22;16985;50.814;8.530;2022-09-12T16:08:29;23.40;65.80
30174;DHT22;16985;50.814;8.530;2022-09-12T16:11:00;23.40;66.10
30174;DHT22;16985;50.814;8.530;2022-09-12T16:13:31;23.30;66.70
30174;DHT22;16985;50.814;8.530;2022-09-12T16:15:59;23.20;66.80
30174;DHT22;16985;50.814;8.530;2022-09-12T16:18:26;23.20;66.50
30174;DHT22;16985;50.814;8.530;2022-09-12T16:20:55;23.10;66.80
30174;DHT22;16985;50.814;8.530;2022-09-12T16:23:22;23.00;66.50
30174;DHT22;16985;50.814;8.530;2022-09-12T16:25:59;23.00;66.60
30174;DHT22;16985;50.814;8.530;2022-09-12T16:28:30;22.90;66.90
30174;DHT22;16985;50.814;8.530;2022-09-12T16:31:02;22.90;67.20
30174;DHT22;16985;50.814;8.530;2022-09-12T16:33:30;22.80;67.70
30174;DHT22;16985;50.814;8.530;2022-09-12T16:36:08;22.80;66.60
30174;DHT22;16985;50.814;8.530;2022-09-12T16:38:46;22.70;66.50
30174;DHT22;16985;50.814;8.530;2022-09-12T16:41:14;22.70;66.60
30174;DHT22;16985;50.814;8.530;2022-09-12T16:43:41;22.60;66.70
30174;DHT22;16985;50.814;8.530;2022-09-12T16:46:16;22.50;67.10
30174;DHT22;16985;50.814;8.530;2022-09-12T16:48:45;22.40;67.20
30174;DHT22;16985;50.814;8.530;2022-09-12T16:51:14;22.30;67.30
30174;DHT22;16985;50.814;8.530;2022-09-12T16:53:42;22.30;67.20
30174;DHT22;16985;50.814;8.530;2022-09-12T16:56:08;22.20;67.40
30174;DHT22;16985;50.814;8.530;2022-09-12T16:58:36;22.10;67.70
30174;DHT22;16985;50.814;8.530;2022-09-12T17:01:08;22.00;68.00
30174;DHT22;16985;50.814;8.530;2022-09-12T17:03:38;22.00;68.20
30174;DHT22;16985;50.814;8.530;2022-09-12T17:06:17;21.90;68.30
30174;DHT22;16985;50.814;8.530;2022-09-12T17:08:45;21.80;68.60
30174;DHT22;16985;50.814;8.530;2022-09-12T17:11:15;21.90;69.50
30174;DHT22;16985;50.814;8.530;2022-09-12T17:13:47;21.70;71.00
30174;DHT22;16985;50.814;8.530;2022-09-12T17:16:14;21.60;71.90
30174;DHT22;16985;50.814;8.530;2022-09-12T17:18:40;21.50;72.90
30174;DHT22;16985;50.814;8.530;2022-09-12T17:21:08;21.40;73.70
30174;DHT22;16985;50.814;8.530;2022-09-12T17:23:35;21.30;74.40
30174;DHT22;16985;50.814;8.530;2022-09-12T17:26:01;21.20;74.70
30174;DHT22;16985;50.814;8.530;2022-09-12T17:28:27;21.00;75.20
30174;DHT22;16985;50.814;8.530;2022-09-12T17:30:54;21.00;75.70
30174;DHT22;16985;50.814;8.530;2022-09-12T17:33:21;21.00;76.00
30174;DHT22;16985;50.814;8.530;2022-09-12T17:35:47;20.80;76.70
30174;DHT22;16985;50.814;8.530;2022-09-12T17:38:13;20.70;76.90
30174;DHT22;16985;50.814;8.530;2022-09-12T17:40:40;20.50;77.30
30174;DHT22;16985;50.814;8.530;2022-09-12T17:43:05;20.40;77.80
30174;DHT22;16985;50.814;8.530;2022-09-12T17:45:31;20.30;78.30
30174;DHT22;16985;50.814;8.530;2022-09-12T17:47:57;20.20;78.60
30174;DHT22;16985;50.814;8.530;2022-09-12T17:50:23;20.10;78.90
30174;DHT22;16985;50.814;8.530;2022-09-12T17:52:49;20.00;79.30
30174;DHT22;16985;50.814;8.530;2022-09-12T17:55:15;20.00;79.80
30174;DHT22;16985;50.814;8.530;2022-09-12T17:57:42;19.80;80.20
30174;DHT22;16985;50.814;8.530;2022-09-12T18:00:10;19.70;80.60
30174;DHT22;16985;50.814;8.530;2022-09-12T18:02:38;19.70;81.00
30174;DHT22;16985;50.814;8.530;2022-09-12T18:05:04;19.60;81.30
30174;DHT22;16985;50.814;8.530;2022-09-12T18:07:31;19.50;81.40
30174;DHT22;16985;50.814;8.530;2022-09-12T18:09:57;19.40;81.70
30174;DHT22;16985;50.814;8.530;2022-09-12T18:12:26;19.30;82.10
30174;DHT22;16985;50.814;8.530;2022-09-12T18:14:51;19.20;82.40
30174;DHT22;16985;50.814;8.530;2022-09-12T18:17:17;19.10;82.50
30174;DHT22;16985;50.814;8.530;2022-09-12T18:19:43;19.00;82.70
30174;DHT22;16985;50.814;8.530;2022-09-12T18:22:10;18.90;83.00
30174;DHT22;16985;50.814;8.530;2022-09-12T18:24:36;18.90;83.30
30174;DHT22;16985;50.814;8.530;2022-09-12T18:27:02;18.80;83.40
30174;DHT22;16985;50.814;8.530;2022-09-12T18:29:28;18.70;83.70
30174;DHT22;16985;50.814;8.530;2022-09-12T18:31:55;18.70;84.10